Terminal Aerodrome Forecast
Issued by NWS

Current Version | Previous Version | Graphics & Text | Print | Product List | Glossary On
Versions: 1 2 3 4 5 6 7 8 9 10 11 12 13 14 15 16 17
000
FTUS41 KILN 272300
TAFLUK
TAF
KLUK 272320Z 2800/2824 05003KT P6SM SCT250
     FM280400 00000KT 4SM BR SCT250
     FM280800 00000KT 1/4SM FG VV001
     FM281100 00000KT 4SM BR SCT012
     FM281300 09004KT P6SM FEW050 BKN250=

USA.gov is the U.S. government's official web portal to all federal, state and local government web resources and services.